Seattle, Washington
Traffic Map
Current Weather Conditions
Seattle, Washington
Broken Clouds
Broken Clouds
47°
Feels Like: 42°
Wind Chill: 42° Ceiling: 2600
Heat Index: 47° Visibility: 10mi
Dew Point: 42° Wind: 10mph
Humidity: 83% Direction: 200° (SSW)
Pressure: 30in Gusts: 0mph
Raw Report DataKBFI 300453Z 20009KT 10SM SCT021 BKN026 08/06 A3000 RMK AO2 SLP158 T00830056
Traffic Incident Summary
Active as of:
Severity:
Category:
InformationThere was an issue retrieving the traffic information for this location. Please try a different location or try again shortly.
Advertisements
Track Severe Weather on mobile